createdAt,value
2022-12-05T00:00:57.315Z,10.48
2022-12-05T00:06:00.404Z,10.49
2022-12-05T00:11:02.225Z,10.47
2022-12-05T00:16:07.447Z,10.50
2022-12-05T00:21:14.268Z,10.34
2022-12-05T00:26:16.124Z,10.41
2022-12-05T00:31:19.110Z,10.50
2022-12-05T00:36:23.867Z,10.57
2022-12-05T00:41:26.370Z,10.56
2022-12-05T00:46:29.412Z,10.53
2022-12-05T00:51:33.509Z,10.52
2022-12-05T00:56:35.390Z,10.51
2022-12-05T01:01:38.774Z,10.39
2022-12-05T01:06:42.197Z,10.34
2022-12-05T01:11:43.940Z,10.55
2022-12-05T01:16:46.561Z,10.23
2022-12-05T01:21:49.848Z,10.35
2022-12-05T01:26:51.651Z,10.44
2022-12-05T01:31:53.660Z,10.49
2022-12-05T01:36:56.934Z,10.41
2022-12-05T01:41:58.769Z,10.54
2022-12-05T01:47:00.554Z,10.52
2022-12-05T01:52:04.615Z,10.79
2022-12-05T01:57:08.160Z,10.79
2022-12-05T02:02:09.947Z,10.87
2022-12-05T02:07:13.411Z,10.64
2022-12-05T02:12:15.155Z,10.55
2022-12-05T02:17:23.526Z,10.42
2022-12-05T02:23:04.538Z,10.44
2022-12-05T02:28:23.664Z,10.47
2022-12-05T02:33:29.913Z,10.49
2022-12-05T02:38:37.117Z,10.55
2022-12-05T02:43:40.369Z,10.53
2022-12-05T02:48:44.071Z,10.56
2022-12-05T02:53:45.787Z,10.63
2022-12-05T02:58:51.379Z,10.62
2022-12-05T03:03:55.108Z,10.72
2022-12-05T03:08:58.265Z,10.90
2022-12-05T03:14:01.048Z,11.05
2022-12-05T03:19:06.611Z,11.01
2022-12-05T03:24:09.283Z,11.10
2022-12-05T03:29:19.774Z,10.86
2022-12-05T03:34:27.657Z,10.98
2022-12-05T03:39:30.394Z,10.75
2022-12-05T03:44:35.367Z,10.77
2022-12-05T03:49:40.159Z,10.66
2022-12-05T03:54:43.784Z,10.62
2022-12-05T03:59:48.080Z,11.06
2022-12-05T04:04:55.580Z,11.15
2022-12-05T04:09:58.844Z,11.14
2022-12-05T04:15:03.636Z,11.21
2022-12-05T04:20:28.263Z,11.26
2022-12-05T04:25:37.999Z,10.82
2022-12-05T04:30:40.873Z,11.13
2022-12-05T04:35:45.440Z,11.15
2022-12-05T04:40:48.922Z,11.24
2022-12-05T04:45:50.666Z,11.33
2022-12-05T04:50:54.245Z,11.35
2022-12-05T04:55:56.322Z,11.39
2022-12-05T05:00:59.470Z,11.32
2022-12-05T05:06:02.606Z,11.07
2022-12-05T05:11:07.627Z,11.11
2022-12-05T05:16:13.919Z,10.82
2022-12-05T05:21:19.095Z,10.94
2022-12-05T05:26:21.003Z,10.30
2022-12-05T05:31:22.914Z,10.28
2022-12-05T05:36:26.553Z,10.09
2022-12-05T05:41:29.266Z,10.01
2022-12-05T05:46:32.159Z,9.96
2022-12-05T05:51:35.301Z,10.06
2022-12-05T05:56:37.047Z,9.78
2022-12-05T06:01:38.844Z,9.95
2022-12-05T06:06:41.911Z,9.91
2022-12-05T06:11:43.600Z,9.99
2022-12-05T06:16:45.327Z,10.00
2022-12-05T06:21:50.253Z,9.98
2022-12-05T06:26:51.970Z,9.94
2022-12-05T06:31:53.788Z,9.97
2022-12-05T06:36:56.864Z,9.83
2022-12-05T06:41:58.923Z,9.80
2022-12-05T06:47:00.605Z,9.80
2022-12-05T06:52:03.764Z,9.68
2022-12-05T06:57:05.452Z,9.56
2022-12-05T07:02:08.369Z,9.66
2022-12-05T07:07:13.176Z,9.65
2022-12-05T07:12:16.321Z,9.54
2022-12-05T07:17:18.161Z,9.52
2022-12-05T07:22:21.855Z,9.40
2022-12-05T07:27:27.654Z,9.42
2022-12-05T07:32:31.921Z,9.53
2022-12-05T07:37:35.003Z,9.41
2022-12-05T07:42:36.763Z,9.46
2022-12-05T07:47:38.601Z,9.45
2022-12-05T07:52:41.758Z,9.46
2022-12-05T07:57:43.451Z,9.52
2022-12-05T08:02:45.384Z,9.48
2022-12-05T08:07:48.535Z,9.59
2022-12-05T08:12:50.293Z,9.58
2022-12-05T08:17:52.000Z,9.66
2022-12-05T08:22:55.083Z,9.72
2022-12-05T08:27:56.796Z,9.70
2022-12-05T08:32:58.574Z,9.75
2022-12-05T08:38:01.667Z,9.66
2022-12-05T08:43:03.364Z,9.67
2022-12-05T08:48:05.670Z,9.65
2022-12-05T08:53:08.699Z,9.68
2022-12-05T08:58:10.413Z,9.85
2022-12-05T09:03:12.245Z,9.93
2022-12-05T09:08:15.325Z,9.91
2022-12-05T09:13:17.332Z,9.85
2022-12-05T09:18:19.095Z,10.00
2022-12-05T09:23:22.200Z,9.95
2022-12-05T09:28:23.903Z,10.13
2022-12-05T09:33:25.667Z,10.14
2022-12-05T09:38:28.753Z,10.17
2022-12-05T09:43:32.480Z,10.06
2022-12-05T09:48:34.293Z,10.02
2022-12-05T09:53:38.087Z,9.82
2022-12-05T09:58:41.781Z,9.73
2022-12-05T10:03:45.735Z,9.53
2022-12-05T10:08:58.572Z,9.44
2022-12-05T10:14:02.865Z,9.53
2022-12-05T10:19:06.385Z,9.31
2022-12-05T10:24:13.205Z,9.55
2022-12-05T10:29:20.908Z,9.81
2022-12-05T10:34:26.883Z,9.73
2022-12-05T10:39:29.972Z,9.62
2022-12-05T10:44:31.728Z,9.70
2022-12-05T10:49:33.727Z,9.78
2022-12-05T10:54:39.284Z,9.83
2022-12-05T10:59:45.440Z,9.61
2022-12-05T11:04:47.702Z,9.74
2022-12-05T11:09:56.805Z,9.95
2022-12-05T11:15:03.211Z,9.71
2022-12-05T11:20:38.747Z,9.77
2022-12-05T11:25:41.840Z,9.91
2022-12-05T11:30:55.454Z,10.06
2022-12-05T11:36:01.166Z,9.92
2022-12-05T11:41:29.758Z,9.87
2022-12-05T11:46:35.623Z,9.86
2022-12-05T11:51:39.043Z,9.67
2022-12-05T11:56:44.847Z,9.62
2022-12-05T12:01:51.753Z,9.59
2022-12-05T12:07:03.070Z,9.67
2022-12-05T12:12:07.674Z,9.70
2022-12-05T12:17:16.215Z,9.70
2022-12-05T12:22:26.638Z,9.62
2022-12-05T12:27:36.072Z,9.78
2022-12-05T12:32:40.531Z,9.95
2022-12-05T12:37:45.649Z,10.01
2022-12-05T12:42:56.214Z,9.76
2022-12-05T12:48:09.842Z,9.74
2022-12-05T12:53:44.516Z,10.02
2022-12-05T12:58:51.205Z,9.99
2022-12-05T13:03:54.161Z,10.34
2022-12-05T13:08:57.429Z,10.34
2022-12-05T13:14:00.870Z,10.29
2022-12-05T13:19:02.824Z,9.71
2022-12-05T13:24:04.924Z,9.82
2022-12-05T13:29:18.529Z,9.57
2022-12-05T13:34:46.070Z,9.93
2022-12-05T13:40:09.156Z,9.50
2022-12-05T13:45:15.869Z,9.38
2022-12-05T13:50:18.972Z,9.44
2022-12-05T13:55:24.814Z,9.38
2022-12-05T14:00:30.835Z,9.30
2022-12-05T14:05:44.104Z,9.38
2022-12-05T14:11:07.865Z,9.45
2022-12-05T14:16:47.940Z,9.14
2022-12-05T14:21:54.152Z,9.04
2022-12-05T14:26:58.266Z,9.28
2022-12-05T14:32:05.342Z,9.63
2022-12-05T14:37:23.835Z,9.86
2022-12-05T14:42:29.615Z,9.98
2022-12-05T14:47:32.608Z,10.12
2022-12-05T14:52:38.586Z,10.11
2022-12-05T14:57:44.332Z,9.96
2022-12-05T15:02:46.440Z,9.86
2022-12-05T15:07:49.560Z,9.94
2022-12-05T15:12:52.227Z,9.89
2022-12-05T15:17:57.435Z,9.90
2022-12-05T15:23:00.455Z,9.68
2022-12-05T15:28:04.511Z,9.77
2022-12-05T15:33:08.262Z,9.96
2022-12-05T15:38:15.679Z,9.83
2022-12-05T15:43:28.617Z,10.22
2022-12-05T15:48:31.520Z,10.14
2022-12-05T15:53:35.827Z,10.07
2022-12-05T15:58:40.238Z,10.07
2022-12-05T16:03:44.632Z,10.06
2022-12-05T16:08:47.718Z,10.19
2022-12-05T16:13:50.694Z,10.16
2022-12-05T16:18:53.164Z,10.41
2022-12-05T16:24:01.273Z,10.44
2022-12-05T16:29:04.110Z,10.43
2022-12-05T16:34:07.480Z,10.47
2022-12-05T16:39:19.151Z,10.37
2022-12-05T16:44:57.378Z,10.42
2022-12-05T16:49:59.678Z,10.19
2022-12-05T16:55:02.793Z,10.21
2022-12-05T17:00:06.484Z,10.19
2022-12-05T17:05:13.059Z,10.22
2022-12-05T17:10:16.278Z,10.09
2022-12-05T17:15:18.631Z,10.30
2022-12-05T17:20:20.361Z,10.20
2022-12-05T17:25:30.955Z,10.09
2022-12-05T17:30:34.438Z,10.32
2022-12-05T17:35:37.745Z,10.26
2022-12-05T17:40:40.939Z,10.21
2022-12-05T17:45:42.734Z,10.29
2022-12-05T17:50:45.812Z,10.13
2022-12-05T17:55:48.979Z,10.18
2022-12-05T18:00:50.890Z,10.30
2022-12-05T18:05:52.685Z,10.30
2022-12-05T18:10:55.758Z,10.34
2022-12-05T18:15:58.078Z,10.21
2022-12-05T18:21:04.430Z,10.21
2022-12-05T18:26:08.092Z,10.00
2022-12-05T18:31:11.210Z,10.18
2022-12-05T18:36:15.715Z,10.21
2022-12-05T18:41:18.986Z,10.22
2022-12-05T18:46:20.791Z,10.13
2022-12-05T18:51:23.076Z,10.11
2022-12-05T18:56:27.440Z,10.01
2022-12-05T19:01:30.645Z,10.03
2022-12-05T19:06:33.386Z,10.02
2022-12-05T19:11:36.472Z,10.00
2022-12-05T19:16:38.301Z,10.19
2022-12-05T19:21:40.254Z,10.18
2022-12-05T19:26:43.364Z,10.23
2022-12-05T19:31:45.324Z,10.27
2022-12-05T19:36:47.117Z,10.14
2022-12-05T19:41:50.333Z,10.01
2022-12-05T19:46:53.188Z,10.01
2022-12-05T19:52:18.092Z,10.04
2022-12-05T19:57:21.442Z,9.98
2022-12-05T20:02:25.212Z,10.03
2022-12-05T20:07:27.077Z,9.87
2022-12-05T20:12:30.221Z,9.89
2022-12-05T20:17:32.027Z,9.91
2022-12-05T20:22:34.272Z,9.71
2022-12-05T20:27:37.321Z,9.72
2022-12-05T20:32:39.093Z,9.77
2022-12-05T20:37:40.839Z,9.73
2022-12-05T20:42:46.850Z,9.83
2022-12-05T20:47:48.923Z,9.78
2022-12-05T20:52:50.714Z,9.84
2022-12-05T20:57:53.844Z,9.94
2022-12-05T21:02:56.609Z,9.82
2022-12-05T21:07:58.420Z,9.81
2022-12-05T21:13:01.522Z,9.83
2022-12-05T21:18:03.602Z,9.89
2022-12-05T21:23:05.387Z,10.00
2022-12-05T21:28:08.513Z,9.85
2022-12-05T21:33:10.228Z,9.99
2022-12-05T21:38:11.960Z,10.15
2022-12-05T21:43:16.701Z,10.16
2022-12-05T21:48:18.567Z,10.12
2022-12-05T21:53:20.427Z,10.21
2022-12-05T21:58:23.591Z,10.28
2022-12-05T22:03:25.626Z,10.15
2022-12-05T22:08:28.645Z,10.02
2022-12-05T22:13:32.263Z,10.27
2022-12-05T22:18:34.000Z,10.16
2022-12-05T22:23:35.775Z,10.11
2022-12-05T22:28:39.131Z,10.21
2022-12-05T22:33:40.935Z,10.32
2022-12-05T22:38:43.215Z,10.31
2022-12-05T22:43:48.577Z,10.20
2022-12-05T22:48:50.568Z,10.24
2022-12-05T22:53:52.434Z,10.14
2022-12-05T22:58:56.023Z,10.11
2022-12-05T23:03:58.732Z,10.08
2022-12-05T23:09:00.720Z,10.19
2022-12-05T23:14:05.818Z,10.27
2022-12-05T23:19:08.282Z,10.35
2022-12-05T23:24:11.107Z,10.38
2022-12-05T23:29:14.350Z,10.42
2022-12-05T23:34:16.285Z,10.48
2022-12-05T23:39:18.311Z,10.22
2022-12-05T23:44:21.783Z,10.17
2022-12-05T23:49:23.680Z,10.22
2022-12-05T23:54:25.581Z,10.49
2022-12-05T23:59:28.897Z,10.44
